createdAt,value
2019-05-07T00:01:52.560Z,55.79
2019-05-07T00:04:22.292Z,55.54
2019-05-07T00:06:52.613Z,54.69
2019-05-07T00:09:20.596Z,54.36
2019-05-07T00:11:49.099Z,54.38
2019-05-07T00:14:17.602Z,54.58
2019-05-07T00:16:46.103Z,54.49
2019-05-07T00:19:14.746Z,54.53
2019-05-07T00:21:43.255Z,54.97
2019-05-07T00:24:13.152Z,55.38
2019-05-07T00:26:43.103Z,55.10
2019-05-07T00:29:12.920Z,55.02
2019-05-07T00:31:42.106Z,55.21
2019-05-07T00:34:12.622Z,55.33
2019-05-07T00:36:52.562Z,55.38
2019-05-07T00:39:37.500Z,55.21
2019-05-07T00:42:13.393Z,56.24
2019-05-07T00:45:14.298Z,55.64
2019-05-07T00:47:30.017Z,55.82
2019-05-07T00:50:00.205Z,56.02
2019-05-07T00:52:28.823Z,55.79
2019-05-07T00:54:57.332Z,55.51
2019-05-07T00:57:25.871Z,55.25
2019-05-07T00:59:54.379Z,56.30
2019-05-07T01:02:23.530Z,55.80
2019-05-07T01:04:53.173Z,55.49
2019-05-07T01:07:22.889Z,56.00
2019-05-07T01:09:52.399Z,56.17
2019-05-07T01:12:22.245Z,55.57
2019-05-07T01:14:52.807Z,55.62
2019-05-07T01:17:22.645Z,56.46
2019-05-07T01:19:53.297Z,56.31
2019-05-07T01:22:22.223Z,55.52
2019-05-07T01:24:52.422Z,55.32
2019-05-07T01:27:22.671Z,55.67
2019-05-07T01:29:52.740Z,55.07
2019-05-07T01:32:26.066Z,55.41
2019-05-07T01:34:56.211Z,55.48
2019-05-07T01:37:24.698Z,55.49
2019-05-07T01:39:53.204Z,55.82
2019-05-07T01:42:22.216Z,55.16
2019-05-07T01:44:52.919Z,55.40
2019-05-07T01:47:23.527Z,55.67
2019-05-07T01:49:52.417Z,55.26
2019-05-07T01:52:22.632Z,55.42
2019-05-07T01:54:52.234Z,55.63
2019-05-07T01:57:22.964Z,55.74
2019-05-07T01:59:52.739Z,55.69
2019-05-07T02:02:29.001Z,55.66
2019-05-07T02:05:03.195Z,55.09
2019-05-07T02:07:33.618Z,55.36
2019-05-07T02:10:03.734Z,55.88
2019-05-07T02:12:33.855Z,56.72
2019-05-07T02:15:02.790Z,56.57
2019-05-07T02:17:32.186Z,56.17
2019-05-07T02:20:02.594Z,56.18
2019-05-07T02:22:32.049Z,56.15
2019-05-07T02:25:03.101Z,55.99
2019-05-07T02:27:32.827Z,55.93
2019-05-07T02:30:04.057Z,56.03
2019-05-07T02:32:33.607Z,56.03
2019-05-07T02:35:04.069Z,56.69
2019-05-07T02:37:46.486Z,56.46
2019-05-07T02:40:18.377Z,55.95
2019-05-07T02:42:46.866Z,55.98
2019-05-07T02:45:17.126Z,55.97
2019-05-07T02:47:45.771Z,55.18
2019-05-07T02:50:16.062Z,55.63
2019-05-07T02:53:04.243Z,55.37
2019-05-07T02:55:39.283Z,56.49
2019-05-07T02:58:07.847Z,57.19
2019-05-07T03:00:36.395Z,56.81
2019-05-07T03:03:04.980Z,56.44
2019-05-07T03:05:34.877Z,56.92
2019-05-07T03:08:03.878Z,57.54
2019-05-07T03:10:33.914Z,57.30
2019-05-07T03:13:03.302Z,57.52
2019-05-07T03:15:33.434Z,58.30
2019-05-07T03:18:03.332Z,58.13
2019-05-07T03:20:46.675Z,57.87
2019-05-07T03:23:16.787Z,58.24
2019-05-07T03:25:49.659Z,58.76
2019-05-07T03:28:19.126Z,58.82
2019-05-07T03:31:06.381Z,57.61
2019-05-07T03:33:37.187Z,58.27
2019-05-07T03:36:08.071Z,58.04
2019-05-07T03:38:36.710Z,57.41
2019-05-07T03:41:05.273Z,57.70
2019-05-07T03:43:33.847Z,57.59
2019-05-07T03:46:07.097Z,57.49
2019-05-07T03:48:37.320Z,57.95
2019-05-07T03:51:05.810Z,58.46
2019-05-07T03:53:34.372Z,58.24
2019-05-07T03:56:04.090Z,58.84
2019-05-07T03:58:33.990Z,57.95
2019-05-07T04:01:04.271Z,58.00
2019-05-07T04:03:34.333Z,58.67
2019-05-07T04:06:04.041Z,58.49
2019-05-07T04:08:33.383Z,58.25
2019-05-07T04:11:03.534Z,58.00
2019-05-07T04:13:33.433Z,57.68
2019-05-07T04:16:03.999Z,57.29
2019-05-07T04:18:33.373Z,56.92
2019-05-07T04:21:03.757Z,56.92
2019-05-07T04:23:34.136Z,57.04
2019-05-07T04:26:04.697Z,56.48
2019-05-07T04:28:54.057Z,55.53
2019-05-07T04:31:22.928Z,55.45
2019-05-07T04:33:53.401Z,55.51
2019-05-07T04:36:23.654Z,54.70
2019-05-07T04:38:53.203Z,55.20
2019-05-07T04:41:38.974Z,55.07
2019-05-07T04:44:07.598Z,55.72
2019-05-07T04:46:36.180Z,55.88
2019-05-07T04:49:05.238Z,55.61
2019-05-07T04:51:43.403Z,55.04
2019-05-07T04:54:13.161Z,54.46
2019-05-07T04:56:43.713Z,53.91
2019-05-07T04:59:13.172Z,54.14
2019-05-07T05:01:43.737Z,54.19
2019-05-07T05:04:25.481Z,53.67
2019-05-07T05:06:42.552Z,53.32
2019-05-07T05:09:12.544Z,53.52
2019-05-07T05:11:43.786Z,53.61
2019-05-07T05:14:13.641Z,53.94
2019-05-07T05:16:42.528Z,53.86
2019-05-07T05:19:12.569Z,54.00
2019-05-07T05:21:48.749Z,55.80
2019-05-07T05:24:27.400Z,54.50
2019-05-07T05:26:55.890Z,54.07
2019-05-07T05:29:24.367Z,53.94
2019-05-07T05:31:53.015Z,55.97
2019-05-07T05:34:22.270Z,55.67
2019-05-07T05:36:52.627Z,56.42
2019-05-07T05:39:22.465Z,57.01
2019-05-07T05:41:52.779Z,57.11
2019-05-07T05:44:22.948Z,54.69
2019-05-07T05:46:52.461Z,55.96
2019-05-07T05:49:22.956Z,57.13
2019-05-07T05:51:53.050Z,56.49
2019-05-07T05:54:25.903Z,57.49
2019-05-07T05:56:56.406Z,57.75
2019-05-07T05:59:37.046Z,57.26
2019-05-07T06:02:03.379Z,55.05
2019-05-07T06:04:47.224Z,57.75
2019-05-07T06:07:22.549Z,56.43
2019-05-07T06:09:57.612Z,57.97
2019-05-07T06:12:36.541Z,57.05
2019-05-07T06:15:07.521Z,56.35
2019-05-07T06:17:42.499Z,56.28
2019-05-07T06:20:24.935Z,57.05
2019-05-07T06:23:12.868Z,55.68
2019-05-07T06:25:43.555Z,56.59
2019-05-07T06:28:12.777Z,56.71
2019-05-07T06:30:41.903Z,54.47
2019-05-07T06:33:12.433Z,57.77
2019-05-07T06:35:42.310Z,56.63
2019-05-07T06:38:12.414Z,53.68
2019-05-07T06:40:52.016Z,54.36
2019-05-07T06:43:28.183Z,54.55
2019-05-07T06:46:04.481Z,54.35
2019-05-07T06:48:41.893Z,52.95
2019-05-07T06:51:03.320Z,53.65
2019-05-07T06:53:33.505Z,52.01
2019-05-07T06:56:03.908Z,51.28
2019-05-07T06:58:41.899Z,53.22
2019-05-07T07:01:14.533Z,53.72
2019-05-07T07:03:53.827Z,54.92
2019-05-07T07:06:23.973Z,54.15
2019-05-07T07:08:57.037Z,51.64
2019-05-07T07:11:31.941Z,50.64
2019-05-07T07:14:02.497Z,50.50
2019-05-07T07:16:32.440Z,51.35
2019-05-07T07:19:03.147Z,48.44
2019-05-07T07:21:32.633Z,49.37
2019-05-07T07:24:03.026Z,47.31
2019-05-07T07:26:32.786Z,47.33
2019-05-07T07:29:02.098Z,47.69
2019-05-07T07:31:32.399Z,47.30
2019-05-07T07:34:02.611Z,48.95
2019-05-07T07:36:32.761Z,46.07
2019-05-07T07:39:02.038Z,46.58
2019-05-07T07:41:52.259Z,46.13
2019-05-07T07:44:22.370Z,44.06
2019-05-07T07:46:53.066Z,45.55
2019-05-07T07:49:22.263Z,45.55
2019-05-07T07:51:52.597Z,44.82
2019-05-07T07:54:22.743Z,43.91
2019-05-07T07:57:05.203Z,43.96
2019-05-07T07:59:42.115Z,43.71
2019-05-07T08:02:15.509Z,43.61
2019-05-07T08:04:43.994Z,44.39
2019-05-07T08:07:12.613Z,47.61
2019-05-07T08:09:42.790Z,44.82
2019-05-07T08:12:12.774Z,42.90
2019-05-07T08:14:42.693Z,44.11
2019-05-07T08:17:13.041Z,46.31
2019-05-07T08:19:42.852Z,45.69
2019-05-07T08:22:12.118Z,42.82
2019-05-07T08:24:42.639Z,42.91
2019-05-07T08:27:14.762Z,43.64
2019-05-07T08:29:42.982Z,43.33
2019-05-07T08:32:16.317Z,42.60
2019-05-07T08:34:49.451Z,43.94
2019-05-07T08:37:17.932Z,42.55
2019-05-07T08:39:46.662Z,41.41
2019-05-07T08:42:15.181Z,42.76
2019-05-07T08:44:51.971Z,40.64
2019-05-07T08:47:34.484Z,41.83
2019-05-07T08:50:03.773Z,40.83
2019-05-07T08:52:32.713Z,41.70
2019-05-07T08:55:02.370Z,40.24
2019-05-07T08:57:31.913Z,42.29
2019-05-07T09:00:02.267Z,40.73
2019-05-07T09:02:32.628Z,40.97
2019-05-07T09:05:02.956Z,39.81
2019-05-07T09:07:32.161Z,38.20
2019-05-07T09:10:02.457Z,38.96
2019-05-07T09:12:31.839Z,38.42
2019-05-07T09:15:02.207Z,39.43
2019-05-07T09:17:31.816Z,38.38
2019-05-07T09:20:02.598Z,37.85
2019-05-07T09:22:32.370Z,37.40
2019-05-07T09:25:03.139Z,41.22
2019-05-07T09:27:35.931Z,39.98
2019-05-07T09:30:12.800Z,41.83
2019-05-07T09:32:43.103Z,42.63
2019-05-07T09:35:25.752Z,43.12
2019-05-07T09:37:54.243Z,42.23
2019-05-07T09:40:22.729Z,42.95
2019-05-07T09:42:52.584Z,41.79
2019-05-07T09:45:22.456Z,37.43
2019-05-07T09:47:52.212Z,38.36
2019-05-07T09:50:22.042Z,37.97
2019-05-07T09:52:51.786Z,39.07
2019-05-07T09:55:20.605Z,39.74
2019-05-07T09:57:49.150Z,36.90
2019-05-07T10:00:19.220Z,35.65
2019-05-07T10:02:47.944Z,37.31
2019-05-07T10:05:16.795Z,38.34
2019-05-07T10:07:45.365Z,37.61
2019-05-07T10:10:14.405Z,37.46
2019-05-07T10:12:44.703Z,33.23
2019-05-07T10:15:14.227Z,31.48
2019-05-07T10:17:44.381Z,33.89
2019-05-07T10:20:21.712Z,36.54
2019-05-07T10:22:44.356Z,38.20
2019-05-07T10:25:13.877Z,40.36
2019-05-07T10:27:42.540Z,39.38
2019-05-07T10:30:12.869Z,40.61
2019-05-07T10:32:42.717Z,39.77
2019-05-07T10:35:12.744Z,40.33
2019-05-07T10:37:42.236Z,42.66
2019-05-07T10:40:12.688Z,43.41
2019-05-07T10:42:43.114Z,44.12
2019-05-07T10:45:17.724Z,43.28
2019-05-07T10:47:47.878Z,40.57
2019-05-07T10:50:35.482Z,40.21
2019-05-07T10:52:54.257Z,41.18
2019-05-07T10:55:22.811Z,39.94
2019-05-07T10:57:52.863Z,42.01
2019-05-07T11:00:24.267Z,40.45
2019-05-07T11:02:52.863Z,40.30
2019-05-07T11:05:22.431Z,39.86
2019-05-07T11:07:50.985Z,42.41
2019-05-07T11:10:21.801Z,41.34
2019-05-07T11:12:51.602Z,41.17
2019-05-07T11:15:22.022Z,38.86
2019-05-07T11:17:58.146Z,38.86
2019-05-07T11:20:26.735Z,38.62
2019-05-07T11:22:55.209Z,38.26
2019-05-07T11:25:24.277Z,37.08
2019-05-07T11:27:52.756Z,38.81
2019-05-07T11:30:22.981Z,41.08
2019-05-07T11:32:52.275Z,41.08
2019-05-07T11:35:22.991Z,36.62
2019-05-07T11:37:52.020Z,35.94
2019-05-07T11:40:22.927Z,32.60
2019-05-07T11:43:09.759Z,32.71
2019-05-07T11:45:54.030Z,30.46
2019-05-07T11:48:23.234Z,31.22
2019-05-07T11:51:03.733Z,32.22
2019-05-07T11:53:37.100Z,32.40
2019-05-07T11:56:05.601Z,32.46
2019-05-07T11:58:34.092Z,33.40
2019-05-07T12:01:12.538Z,33.98
2019-05-07T12:03:42.760Z,33.27
2019-05-07T12:06:12.437Z,33.86
2019-05-07T12:08:48.062Z,35.65
2019-05-07T12:11:11.918Z,36.25
2019-05-07T12:13:42.581Z,35.43
2019-05-07T12:16:13.957Z,37.41
2019-05-07T12:18:42.939Z,42.68
2019-05-07T12:21:20.759Z,43.31
2019-05-07T12:23:42.153Z,44.20
2019-05-07T12:26:12.588Z,44.56
2019-05-07T12:28:41.850Z,42.88
2019-05-07T12:31:28.496Z,43.78
2019-05-07T12:33:58.626Z,42.69
2019-05-07T12:36:27.208Z,39.69
2019-05-07T12:38:55.701Z,37.22
2019-05-07T12:41:33.219Z,36.91
2019-05-07T12:44:03.442Z,33.64
2019-05-07T12:46:33.445Z,33.64
2019-05-07T12:49:04.016Z,33.95
2019-05-07T12:51:37.550Z,34.00
2019-05-07T12:54:13.090Z,34.26
2019-05-07T12:56:42.755Z,34.00
2019-05-07T12:59:12.859Z,34.69
2019-05-07T13:02:17.888Z,36.50
2019-05-07T13:04:35.855Z,36.33
2019-05-07T13:07:11.625Z,35.58
2019-05-07T13:09:40.238Z,33.60
2019-05-07T13:12:08.795Z,34.46
2019-05-07T13:14:37.303Z,34.08
2019-05-07T13:17:05.789Z,35.21
2019-05-07T13:19:34.373Z,34.10
2019-05-07T13:22:03.001Z,34.97
2019-05-07T13:24:32.239Z,37.63
2019-05-07T13:27:03.132Z,38.35
2019-05-07T13:29:32.609Z,38.17
2019-05-07T13:32:03.033Z,38.68
2019-05-07T13:34:34.025Z,37.65
2019-05-07T13:37:09.381Z,35.81
2019-05-07T13:39:45.203Z,38.63
2019-05-07T13:42:21.618Z,37.63
2019-05-07T13:44:58.255Z,36.64
2019-05-07T13:47:28.834Z,38.30
2019-05-07T13:49:57.767Z,38.02
2019-05-07T13:52:26.387Z,35.95
2019-05-07T13:54:55.315Z,36.52
2019-05-07T13:57:24.458Z,33.11
2019-05-07T13:59:53.960Z,34.53
2019-05-07T14:02:24.259Z,34.40
2019-05-07T14:04:52.909Z,38.01
2019-05-07T14:07:22.766Z,38.17
2019-05-07T14:09:52.704Z,38.14
2019-05-07T14:12:22.934Z,39.49
2019-05-07T14:14:53.086Z,38.88
2019-05-07T14:17:22.067Z,40.37
2019-05-07T14:19:52.815Z,41.02
2019-05-07T14:22:22.541Z,39.54
2019-05-07T14:24:53.085Z,39.75
2019-05-07T14:27:21.727Z,39.72
2019-05-07T14:29:52.029Z,38.31
2019-05-07T14:32:25.413Z,37.68
2019-05-07T14:35:04.837Z,37.90
2019-05-07T14:37:37.559Z,38.04
2019-05-07T14:40:07.518Z,37.50
2019-05-07T14:42:38.403Z,37.67
2019-05-07T14:45:06.850Z,35.90
2019-05-07T14:47:35.355Z,37.44
2019-05-07T14:50:06.798Z,44.46
2019-05-07T14:52:36.201Z,46.01
2019-05-07T14:55:07.083Z,48.15
2019-05-07T14:57:36.524Z,45.00
2019-05-07T15:00:09.173Z,44.25
2019-05-07T15:02:38.248Z,46.37
2019-05-07T15:05:07.900Z,45.28
2019-05-07T15:07:36.555Z,43.67
2019-05-07T15:10:09.006Z,45.19
2019-05-07T15:12:37.562Z,43.84
2019-05-07T15:15:12.490Z,45.75
2019-05-07T15:17:42.706Z,46.50
2019-05-07T15:20:11.376Z,49.19
2019-05-07T15:22:49.950Z,49.55
2019-05-07T15:25:18.005Z,49.48
2019-05-07T15:27:49.147Z,50.26
2019-05-07T15:30:18.079Z,47.17
2019-05-07T15:32:46.588Z,48.96
2019-05-07T15:35:15.216Z,48.81
2019-05-07T15:37:43.796Z,44.69
2019-05-07T15:40:12.435Z,41.03
2019-05-07T15:42:42.141Z,42.26
2019-05-07T15:45:12.530Z,41.90
2019-05-07T15:47:43.203Z,43.88
2019-05-07T15:50:12.466Z,43.98
2019-05-07T15:52:58.599Z,43.05
2019-05-07T15:55:25.003Z,42.49
2019-05-07T15:57:53.640Z,42.39
2019-05-07T16:00:24.001Z,41.20
2019-05-07T16:02:54.195Z,43.65
2019-05-07T16:05:22.690Z,44.62
2019-05-07T16:07:51.747Z,44.27
2019-05-07T16:10:20.334Z,43.87
2019-05-07T16:12:49.490Z,43.73
2019-05-07T16:15:18.133Z,44.96
2019-05-07T16:17:52.179Z,43.15
2019-05-07T16:20:22.836Z,42.41
2019-05-07T16:23:14.321Z,45.15
2019-05-07T16:25:33.436Z,46.11
2019-05-07T16:28:04.759Z,43.89
2019-05-07T16:30:32.478Z,43.27
2019-05-07T16:33:02.341Z,41.01
2019-05-07T16:35:31.999Z,39.23
2019-05-07T16:38:00.845Z,39.35
2019-05-07T16:40:29.412Z,39.75
2019-05-07T16:42:57.926Z,41.40
2019-05-07T16:45:26.403Z,42.48
2019-05-07T16:47:54.924Z,44.09
2019-05-07T16:50:23.552Z,42.98
2019-05-07T16:52:52.557Z,42.83
2019-05-07T16:55:22.399Z,42.55
2019-05-07T16:58:01.971Z,42.23
2019-05-07T17:00:32.346Z,41.12
2019-05-07T17:03:02.468Z,40.89
2019-05-07T17:05:32.126Z,40.87
2019-05-07T17:08:02.619Z,42.57
2019-05-07T17:10:31.850Z,41.42
2019-05-07T17:13:02.758Z,40.92
2019-05-07T17:15:30.745Z,42.98
2019-05-07T17:17:59.328Z,43.04
2019-05-07T17:20:27.865Z,42.31
2019-05-07T17:22:56.806Z,42.08
2019-05-07T17:25:37.422Z,41.59
2019-05-07T17:28:09.449Z,42.08
2019-05-07T17:30:41.922Z,42.62
2019-05-07T17:33:09.107Z,43.05
2019-05-07T17:35:37.641Z,45.10
2019-05-07T17:38:09.587Z,44.49
2019-05-07T17:40:36.366Z,44.99
2019-05-07T17:43:05.135Z,44.91
2019-05-07T17:45:33.624Z,45.53
2019-05-07T17:48:03.782Z,46.33
2019-05-07T17:50:43.084Z,46.10
2019-05-07T17:53:12.059Z,46.31
2019-05-07T17:55:42.288Z,47.21
2019-05-07T17:58:12.917Z,47.15
2019-05-07T18:00:43.131Z,47.17
2019-05-07T18:03:29.462Z,47.63
2019-05-07T18:05:57.953Z,47.50
2019-05-07T18:08:26.449Z,48.45
2019-05-07T18:10:56.625Z,48.56
2019-05-07T18:13:25.117Z,48.52
2019-05-07T18:15:55.294Z,49.04
2019-05-07T18:18:23.890Z,49.63
2019-05-07T18:20:52.427Z,50.07
2019-05-07T18:23:22.305Z,50.86
2019-05-07T18:25:52.632Z,50.91
2019-05-07T18:28:21.623Z,51.57
2019-05-07T18:30:50.301Z,51.91
2019-05-07T18:33:22.113Z,52.72
2019-05-07T18:35:52.545Z,52.90
2019-05-07T18:38:22.362Z,52.52
2019-05-07T18:40:52.731Z,53.00
2019-05-07T18:43:23.452Z,53.33
2019-05-07T18:45:51.939Z,53.83
2019-05-07T18:48:22.284Z,53.49
2019-05-07T18:50:52.195Z,54.84
2019-05-07T18:53:22.731Z,54.66
2019-05-07T18:55:51.702Z,55.53
2019-05-07T18:58:22.266Z,55.70
2019-05-07T19:01:04.592Z,56.36
2019-05-07T19:03:33.077Z,56.48
2019-05-07T19:06:02.770Z,55.20
2019-05-07T19:08:32.676Z,54.67
2019-05-07T19:11:01.832Z,55.79
2019-05-07T19:13:32.490Z,56.00
2019-05-07T19:16:00.584Z,55.92
2019-05-07T19:18:29.075Z,55.50
2019-05-07T19:20:57.590Z,55.88
2019-05-07T19:23:26.091Z,56.03
2019-05-07T19:25:54.624Z,56.09
2019-05-07T19:28:24.637Z,56.15
2019-05-07T19:30:53.334Z,55.94
2019-05-07T19:33:26.857Z,56.66
2019-05-07T19:35:52.962Z,56.51
2019-05-07T19:38:22.001Z,56.58
2019-05-07T19:40:52.647Z,56.49
2019-05-07T19:43:20.797Z,56.74
2019-05-07T19:45:49.288Z,57.13
2019-05-07T19:48:17.819Z,57.82
2019-05-07T19:50:46.336Z,57.27
2019-05-07T19:53:14.828Z,57.43
2019-05-07T19:56:06.262Z,57.61
2019-05-07T19:58:34.892Z,58.11
2019-05-07T20:01:04.734Z,58.90
2019-05-07T20:03:33.236Z,58.56
2019-05-07T20:06:02.598Z,58.31
2019-05-07T20:08:31.925Z,58.38
2019-05-07T20:11:02.837Z,58.36
2019-05-07T20:13:32.343Z,58.64
2019-05-07T20:16:08.705Z,58.80
2019-05-07T20:18:37.192Z,59.22
2019-05-07T20:21:05.863Z,59.18
2019-05-07T20:23:34.416Z,59.56
2019-05-07T20:26:03.453Z,58.87
2019-05-07T20:28:32.829Z,58.86
2019-05-07T20:31:01.475Z,58.62
2019-05-07T20:33:30.013Z,58.50
2019-05-07T20:35:58.554Z,59.33
2019-05-07T20:38:27.061Z,59.57
2019-05-07T20:40:55.572Z,59.72
2019-05-07T20:43:24.052Z,59.66
2019-05-07T20:45:52.576Z,59.52
2019-05-07T20:48:22.677Z,60.06
2019-05-07T20:50:52.030Z,60.24
2019-05-07T20:53:22.549Z,60.72
2019-05-07T20:55:55.685Z,60.43
2019-05-07T20:58:25.721Z,60.79
2019-05-07T21:00:54.245Z,60.60
2019-05-07T21:03:23.856Z,60.98
2019-05-07T21:05:53.456Z,60.09
2019-05-07T21:08:22.694Z,59.64
2019-05-07T21:10:53.627Z,59.30
2019-05-07T21:13:28.437Z,59.38
2019-05-07T21:15:52.773Z,59.51
2019-05-07T21:18:23.263Z,59.80
2019-05-07T21:20:52.944Z,60.31
2019-05-07T21:23:23.171Z,60.42
2019-05-07T21:25:52.855Z,60.32
2019-05-07T21:28:22.873Z,60.38
2019-05-07T21:30:52.154Z,60.46
2019-05-07T21:33:22.908Z,60.50
2019-05-07T21:35:52.331Z,60.72
2019-05-07T21:38:22.354Z,60.09
2019-05-07T21:40:51.216Z,60.08
2019-05-07T21:43:21.890Z,60.22
2019-05-07T21:45:49.953Z,60.23
2019-05-07T21:48:18.450Z,60.48
2019-05-07T21:50:46.937Z,60.59
2019-05-07T21:53:23.023Z,60.83
2019-05-07T21:56:01.857Z,60.69
2019-05-07T21:58:32.853Z,61.25
2019-05-07T22:01:06.030Z,61.44
2019-05-07T22:03:36.287Z,61.26
2019-05-07T22:06:05.257Z,60.82
2019-05-07T22:08:33.774Z,61.81
2019-05-07T22:11:04.584Z,62.25
2019-05-07T22:13:33.068Z,62.21
2019-05-07T22:16:02.515Z,62.60
2019-05-07T22:18:32.005Z,62.73
2019-05-07T22:21:02.978Z,62.13
2019-05-07T22:23:32.335Z,61.69
2019-05-07T22:26:18.530Z,61.50
2019-05-07T22:28:32.124Z,62.16
2019-05-07T22:31:07.831Z,62.10
2019-05-07T22:33:49.767Z,62.28
2019-05-07T22:36:18.251Z,62.50
2019-05-07T22:38:46.769Z,62.75
2019-05-07T22:41:15.252Z,62.56
2019-05-07T22:43:43.775Z,62.92
2019-05-07T22:46:12.571Z,62.86
2019-05-07T22:48:41.910Z,63.12
2019-05-07T22:51:12.237Z,63.33
2019-05-07T22:53:40.903Z,63.06
2019-05-07T22:56:09.403Z,62.79
2019-05-07T22:58:41.850Z,62.90
2019-05-07T23:01:14.460Z,62.69
2019-05-07T23:03:43.155Z,62.19
2019-05-07T23:06:12.455Z,62.39
2019-05-07T23:08:42.420Z,62.90
2019-05-07T23:11:12.228Z,63.33
2019-05-07T23:13:42.753Z,62.80
2019-05-07T23:16:12.607Z,62.66
2019-05-07T23:18:42.947Z,63.42
2019-05-07T23:21:12.628Z,62.95
2019-05-07T23:23:42.257Z,63.07
2019-05-07T23:26:14.358Z,62.89
2019-05-07T23:28:43.272Z,63.05
2019-05-07T23:31:12.244Z,63.27
2019-05-07T23:33:41.005Z,63.15
2019-05-07T23:36:09.487Z,62.84
2019-05-07T23:38:38.006Z,62.60
2019-05-07T23:41:23.220Z,62.93
2019-05-07T23:44:12.422Z,63.18
2019-05-07T23:46:42.618Z,63.46
2019-05-07T23:49:12.491Z,63.76
2019-05-07T23:51:42.104Z,64.19
2019-05-07T23:54:12.196Z,64.19
2019-05-07T23:56:42.814Z,64.25
2019-05-07T23:59:12.698Z,63.72
